createdAt,value
2023-04-11T00:00:12.263Z,30.50
2023-04-11T00:03:01.934Z,32.00
2023-04-11T00:05:31.488Z,31.50
2023-04-11T00:07:58.994Z,33.75
2023-04-11T00:10:26.136Z,29.75
2023-04-11T00:12:56.904Z,29.00
2023-04-11T00:15:25.041Z,32.50
2023-04-11T00:17:58.237Z,30.25
2023-04-11T00:20:26.076Z,27.75
2023-04-11T00:22:54.246Z,28.00
2023-04-11T00:25:21.500Z,27.00
2023-04-11T00:27:48.868Z,27.75
2023-04-11T00:30:15.835Z,28.00
2023-04-11T00:32:43.222Z,33.50
2023-04-11T00:35:10.491Z,32.50
2023-04-11T00:37:37.835Z,29.75
2023-04-11T00:40:08.344Z,8.75
2023-04-11T00:42:35.750Z,32.25
2023-04-11T00:45:02.955Z,33.75
2023-04-11T00:47:33.021Z,32.25
2023-04-11T00:50:00.158Z,28.75
2023-04-11T00:52:27.575Z,29.50
2023-04-11T00:54:54.722Z,30.25
2023-04-11T00:57:22.891Z,31.25
2023-04-11T00:59:51.579Z,24.75
2023-04-11T01:02:19.370Z,32.00
2023-04-11T01:04:46.819Z,18.50
2023-04-11T01:07:14.565Z,29.25
2023-04-11T01:09:42.083Z,29.25
2023-04-11T01:12:10.764Z,28.50
2023-04-11T01:14:38.138Z,29.50
2023-04-11T01:17:05.592Z,31.00
2023-04-11T01:19:33.724Z,28.00
2023-04-11T01:22:02.086Z,28.50
2023-04-11T01:24:29.124Z,31.50
2023-04-11T01:26:57.265Z,28.00
2023-04-11T01:29:24.320Z,27.25
2023-04-11T01:31:52.143Z,29.00
2023-04-11T01:34:19.925Z,32.25
2023-04-11T01:36:47.964Z,34.00
2023-04-11T01:39:15.140Z,33.50
2023-04-11T01:41:43.452Z,33.50
2023-04-11T01:44:10.465Z,33.50
2023-04-11T01:46:38.128Z,32.25
2023-04-11T01:49:06.780Z,31.25
2023-04-11T01:51:34.121Z,29.00
2023-04-11T01:54:01.066Z,30.50
2023-04-11T01:56:28.552Z,21.00
2023-04-11T01:58:59.303Z,27.00
2023-04-11T02:01:26.953Z,31.25
2023-04-11T02:03:54.537Z,32.00
2023-04-11T02:06:21.789Z,33.25
2023-04-11T02:08:48.815Z,34.25
2023-04-11T02:11:16.355Z,32.50
2023-04-11T02:13:43.249Z,35.00
2023-04-11T02:16:15.446Z,28.00
2023-04-11T02:18:43.590Z,27.75
2023-04-11T02:21:11.573Z,34.00
2023-04-11T02:23:38.597Z,31.00
2023-04-11T02:26:06.389Z,34.50
2023-04-11T02:28:33.422Z,34.50
2023-04-11T02:31:00.767Z,37.00
2023-04-11T02:33:28.228Z,36.00
2023-04-11T02:35:55.687Z,35.00
2023-04-11T02:38:22.732Z,33.50
2023-04-11T02:40:50.074Z,34.00
2023-04-11T02:43:17.222Z,35.25
2023-04-11T02:45:44.420Z,32.00
2023-04-11T02:48:11.450Z,33.25
2023-04-11T02:50:41.072Z,30.25
2023-04-11T02:53:08.256Z,33.00
2023-04-11T02:55:36.658Z,33.00
2023-04-11T02:58:03.538Z,34.50
2023-04-11T03:00:31.488Z,35.25
2023-04-11T03:02:59.323Z,36.00
2023-04-11T03:05:26.671Z,39.25
2023-04-11T03:07:53.634Z,38.00
2023-04-11T03:10:21.301Z,35.50
2023-04-11T03:12:48.202Z,39.25
2023-04-11T03:15:15.711Z,42.75
2023-04-11T03:17:43.130Z,39.00
2023-04-11T03:20:11.896Z,38.75
2023-04-11T03:22:39.217Z,40.00
2023-04-11T03:25:07.524Z,40.25
2023-04-11T03:27:34.449Z,44.50
2023-04-11T03:30:01.933Z,41.75
2023-04-11T03:32:29.073Z,44.75
2023-04-11T03:34:57.625Z,47.50
2023-04-11T03:37:24.547Z,43.00
2023-04-11T03:39:51.939Z,44.00
2023-04-11T03:42:18.960Z,37.00
2023-04-11T03:44:46.193Z,36.25
2023-04-11T03:47:14.093Z,37.75
2023-04-11T03:49:41.390Z,34.00
2023-04-11T03:52:09.956Z,34.25
2023-04-11T03:54:40.840Z,36.50
2023-04-11T03:57:07.981Z,38.25
2023-04-11T03:59:36.500Z,39.00
2023-04-11T04:02:03.675Z,40.00
2023-04-11T04:04:32.575Z,37.50
2023-04-11T04:06:59.666Z,37.00
2023-04-11T04:09:27.391Z,40.00
2023-04-11T04:11:54.270Z,40.00
2023-04-11T04:14:21.555Z,37.00
2023-04-11T04:16:48.953Z,36.75
2023-04-11T04:19:16.205Z,35.25
2023-04-11T04:21:43.470Z,40.00
2023-04-11T04:24:12.417Z,40.75
2023-04-11T04:26:39.900Z,39.00
2023-04-11T04:29:10.275Z,37.25
2023-04-11T04:31:38.388Z,36.00
2023-04-11T04:34:10.460Z,26.00
2023-04-11T04:36:46.629Z,31.50
2023-04-11T04:39:17.738Z,36.25
2023-04-11T04:41:46.058Z,35.75
2023-04-11T04:44:16.030Z,38.00
2023-04-11T04:46:46.146Z,36.75
2023-04-11T04:49:13.545Z,35.75
2023-04-11T04:51:40.814Z,42.50
2023-04-11T04:54:08.312Z,39.25
2023-04-11T04:56:35.792Z,34.00
2023-04-11T04:59:03.429Z,36.25
2023-04-11T05:01:33.197Z,38.00
2023-04-11T05:04:01.474Z,37.50
2023-04-11T05:06:30.235Z,36.75
2023-04-11T05:09:02.489Z,36.75
2023-04-11T05:11:29.668Z,34.25
2023-04-11T05:13:57.296Z,37.25
2023-04-11T05:16:25.106Z,30.75
2023-04-11T05:18:52.366Z,37.75
2023-04-11T05:21:19.624Z,37.75
2023-04-11T05:23:47.250Z,37.50
2023-04-11T05:26:14.453Z,39.25
2023-04-11T05:28:41.739Z,38.00
2023-04-11T05:31:09.982Z,38.25
2023-04-11T05:33:38.471Z,37.25
2023-04-11T05:36:06.698Z,37.00
2023-04-11T05:38:34.148Z,33.75
2023-04-11T05:41:01.396Z,31.25
2023-04-11T05:43:28.795Z,31.50
2023-04-11T05:45:56.110Z,26.25
2023-04-11T05:48:24.091Z,31.00
2023-04-11T05:50:51.563Z,28.00
2023-04-11T05:53:19.386Z,27.00
2023-04-11T05:55:46.526Z,24.00
2023-04-11T05:58:14.041Z,26.25
2023-04-11T06:00:41.438Z,23.25
2023-04-11T06:03:09.581Z,22.50
2023-04-11T06:05:37.040Z,22.75
2023-04-11T06:08:05.819Z,21.25
2023-04-11T06:10:32.944Z,21.50
2023-04-11T06:13:00.176Z,20.25
2023-04-11T06:15:28.518Z,21.25
2023-04-11T06:17:55.988Z,20.75
2023-04-11T06:20:23.852Z,20.00
2023-04-11T06:22:51.678Z,20.33
2023-04-11T06:25:20.407Z,19.33
2023-04-11T06:27:48.411Z,23.00
2023-04-11T06:30:16.145Z,21.00
2023-04-11T06:32:43.396Z,21.67
2023-04-11T06:35:10.367Z,19.67
2023-04-11T06:37:38.023Z,21.67
2023-04-11T06:40:08.255Z,18.67
2023-04-11T06:42:35.720Z,14.00
2023-04-11T06:45:04.319Z,19.00
2023-04-11T06:47:31.614Z,16.00
2023-04-11T06:49:59.438Z,21.00
2023-04-11T06:52:28.274Z,20.67
2023-04-11T06:54:55.357Z,22.00
2023-04-11T06:57:22.749Z,18.33
2023-04-11T06:59:50.283Z,17.33
2023-04-11T07:02:17.670Z,19.33
2023-04-11T07:04:44.952Z,21.33
2023-04-11T07:07:12.866Z,17.00
2023-04-11T07:09:39.893Z,20.00
2023-04-11T07:12:07.223Z,16.33
2023-04-11T07:14:34.744Z,16.33
2023-04-11T07:17:02.432Z,18.00
2023-04-11T07:19:29.433Z,15.00
2023-04-11T07:21:57.141Z,16.67
2023-04-11T07:24:24.198Z,24.33
2023-04-11T07:26:52.097Z,18.00
2023-04-11T07:29:19.636Z,18.00
2023-04-11T07:31:50.454Z,17.33
2023-04-11T07:34:17.668Z,14.00
2023-04-11T07:36:48.932Z,18.00
2023-04-11T07:39:16.477Z,16.00
2023-04-11T07:41:44.939Z,16.67
2023-04-11T07:44:12.154Z,16.00
2023-04-11T07:46:39.529Z,16.00
2023-04-11T07:49:06.623Z,16.67
2023-04-11T07:51:34.659Z,15.67
2023-04-11T07:54:01.708Z,16.67
2023-04-11T07:56:29.252Z,14.67
2023-04-11T07:58:58.757Z,18.00
2023-04-11T08:01:27.103Z,18.00
2023-04-11T08:03:55.319Z,16.33
2023-04-11T08:06:23.715Z,17.00
2023-04-11T08:08:51.100Z,14.25
2023-04-11T08:11:18.397Z,15.33
2023-04-11T08:13:45.639Z,14.00
2023-04-11T08:16:15.564Z,12.75
2023-04-11T08:18:42.948Z,14.25
2023-04-11T08:21:13.945Z,11.00
2023-04-11T08:23:42.572Z,13.75
2023-04-11T08:26:12.076Z,13.00
2023-04-11T08:28:41.810Z,16.75
2023-04-11T08:31:10.747Z,11.00
2023-04-11T08:33:39.381Z,12.50
2023-04-11T08:36:10.661Z,13.00
2023-04-11T08:38:38.713Z,16.25
2023-04-11T08:41:06.474Z,12.75
2023-04-11T08:43:37.912Z,15.00
2023-04-11T08:46:05.701Z,14.75
2023-04-11T08:48:33.106Z,14.50
2023-04-11T08:51:00.784Z,14.50
2023-04-11T08:53:28.734Z,16.00
2023-04-11T08:55:56.358Z,12.50
2023-04-11T08:58:23.603Z,15.00
2023-04-11T09:00:51.125Z,15.25
2023-04-11T09:03:18.517Z,16.00
2023-04-11T09:05:49.750Z,12.25
2023-04-11T09:08:17.706Z,15.00
2023-04-11T09:10:45.821Z,13.00
2023-04-11T09:13:27.310Z,9.75
2023-04-11T09:16:05.910Z,12.25
2023-04-11T09:18:37.748Z,11.25
2023-04-11T09:21:07.824Z,10.00
2023-04-11T09:23:35.652Z,10.00
2023-04-11T09:26:05.353Z,11.00
2023-04-11T09:28:44.302Z,9.50
2023-04-11T09:31:14.784Z,11.50
2023-04-11T09:33:54.062Z,9.00
2023-04-11T09:36:23.656Z,11.25
2023-04-11T09:38:51.986Z,10.00
2023-04-11T09:41:33.677Z,11.00
2023-04-11T09:44:01.287Z,11.50
2023-04-11T09:46:28.717Z,11.25
2023-04-11T09:48:56.808Z,12.00
2023-04-11T09:53:56.534Z,12.00
2023-04-11T09:56:26.756Z,11.50
2023-04-11T09:58:55.071Z,10.00
2023-04-11T10:01:24.635Z,12.50
2023-04-11T10:03:52.956Z,11.00
2023-04-11T10:06:34.325Z,11.75
2023-04-11T10:09:12.611Z,12.25
2023-04-11T10:11:44.003Z,11.50
2023-04-11T10:14:39.344Z,10.75
2023-04-11T10:17:23.992Z,22.25
2023-04-11T10:19:56.874Z,23.00
2023-04-11T10:22:46.731Z,15.00
2023-04-11T10:25:25.505Z,11.75
2023-04-11T10:27:54.855Z,11.50
2023-04-11T10:30:43.059Z,16.50
2023-04-11T10:33:16.094Z,16.50
2023-04-11T10:36:06.234Z,9.25
2023-04-11T10:38:49.401Z,10.75
2023-04-11T10:41:23.142Z,18.50
2023-04-11T10:43:51.149Z,10.00
2023-04-11T10:46:18.964Z,13.25
2023-04-11T10:49:03.618Z,9.00
2023-04-11T10:51:32.860Z,12.75
2023-04-11T10:54:00.772Z,8.00
2023-04-11T10:56:40.548Z,12.75
2023-04-11T10:59:10.926Z,9.50
2023-04-11T11:04:10.824Z,8.50
2023-04-11T11:06:47.184Z,8.00
2023-04-11T11:09:26.389Z,8.50
2023-04-11T11:12:09.168Z,9.25
2023-04-11T11:14:37.299Z,9.00
2023-04-11T11:17:04.653Z,8.75
2023-04-11T11:19:32.357Z,9.00
2023-04-11T11:22:04.262Z,9.75
2023-04-11T11:24:31.640Z,9.00
2023-04-11T11:26:59.063Z,8.75
2023-04-11T11:29:38.147Z,8.25
2023-04-11T11:32:06.876Z,9.50
2023-04-11T11:34:35.387Z,8.75
2023-04-11T11:37:06.696Z,7.00
2023-04-11T11:39:34.570Z,10.75
2023-04-11T11:42:02.194Z,7.25
2023-04-11T11:44:30.885Z,13.00
2023-04-11T11:47:27.442Z,11.75
2023-04-11T11:49:55.738Z,19.50
2023-04-11T11:52:33.689Z,8.75
2023-04-11T11:55:09.545Z,8.75
2023-04-11T11:57:37.991Z,9.50
2023-04-11T12:00:06.554Z,7.50
2023-04-11T12:02:35.409Z,7.00
2023-04-11T12:05:05.689Z,9.00
2023-04-11T12:07:34.457Z,7.00
2023-04-11T12:10:03.766Z,10.25
2023-04-11T12:12:53.168Z,7.75
2023-04-11T12:15:23.137Z,9.50
2023-04-11T12:17:51.685Z,10.25
2023-04-11T12:20:26.934Z,8.00
2023-04-11T12:22:55.253Z,7.75
2023-04-11T12:25:23.290Z,7.00
2023-04-11T12:27:50.416Z,8.00
2023-04-11T12:30:18.830Z,9.25
2023-04-11T12:32:45.906Z,10.75
2023-04-11T12:35:13.540Z,9.00
2023-04-11T12:37:41.315Z,11.50
2023-04-11T12:40:12.236Z,11.75
2023-04-11T12:42:53.185Z,9.00
2023-04-11T12:45:23.887Z,11.00
2023-04-11T12:47:51.376Z,10.50
2023-04-11T12:50:18.754Z,10.50
2023-04-11T12:52:48.717Z,12.00
2023-04-11T12:55:16.226Z,8.00
2023-04-11T12:57:43.948Z,12.25
2023-04-11T13:00:12.973Z,8.00
2023-04-11T13:02:44.054Z,10.00
2023-04-11T13:05:14.215Z,11.00
2023-04-11T13:07:45.439Z,8.00
2023-04-11T13:10:16.353Z,6.00
2023-04-11T13:12:45.113Z,8.75
2023-04-11T13:15:14.825Z,8.00
2023-04-11T13:17:42.517Z,7.00
2023-04-11T13:20:11.169Z,6.00
2023-04-11T13:22:41.994Z,8.00
2023-04-11T13:25:10.617Z,9.50
2023-04-11T13:27:39.669Z,10.00
2023-04-11T13:30:08.639Z,8.25
2023-04-11T13:32:36.313Z,6.75
2023-04-11T13:35:04.399Z,7.25
2023-04-11T13:37:31.650Z,8.00
2023-04-11T13:39:58.945Z,8.00
2023-04-11T13:42:26.248Z,7.75
2023-04-11T13:44:53.894Z,7.00
2023-04-11T13:47:21.036Z,7.25
2023-04-11T13:49:49.162Z,5.00
2023-04-11T13:52:16.638Z,8.75
2023-04-11T13:54:44.140Z,3.00
2023-04-11T13:57:11.658Z,8.50
2023-04-11T13:59:39.194Z,9.00
2023-04-11T14:02:06.485Z,8.00
2023-04-11T14:04:35.406Z,11.75
2023-04-11T14:07:02.583Z,12.00
2023-04-11T14:09:29.941Z,17.67
2023-04-11T14:11:57.928Z,14.33
2023-04-11T14:14:25.611Z,15.67
2023-04-11T14:16:52.918Z,13.00
2023-04-11T14:19:22.819Z,14.00
2023-04-11T14:21:51.677Z,10.67
2023-04-11T14:24:22.435Z,5.33
2023-04-11T14:26:50.404Z,14.00
2023-04-11T14:29:18.751Z,16.33
2023-04-11T14:31:46.736Z,15.67
2023-04-11T14:34:14.398Z,20.33
2023-04-11T14:36:41.670Z,16.33
2023-04-11T14:39:09.007Z,21.00
2023-04-11T14:41:36.436Z,21.33
2023-04-11T14:44:03.871Z,17.33
2023-04-11T14:46:31.193Z,18.67
2023-04-11T14:48:58.853Z,17.67
2023-04-11T14:51:27.911Z,20.33
2023-04-11T14:53:56.324Z,20.67
2023-04-11T14:56:24.551Z,18.67
2023-04-11T14:58:52.524Z,20.00
2023-04-11T15:01:20.343Z,22.00
2023-04-11T15:03:48.966Z,19.00
2023-04-11T15:06:16.416Z,24.67
2023-04-11T15:08:43.866Z,19.00
2023-04-11T15:11:10.972Z,13.67
2023-04-11T15:13:38.384Z,14.00
2023-04-11T15:16:06.684Z,14.00
2023-04-11T15:18:35.258Z,12.33
2023-04-11T15:21:03.715Z,17.33
2023-04-11T15:23:31.252Z,19.00
2023-04-11T15:26:00.497Z,24.33
2023-04-11T15:28:35.078Z,20.00
2023-04-11T15:31:03.609Z,22.00
2023-04-11T15:33:32.011Z,21.00
2023-04-11T15:36:00.754Z,23.33
2023-04-11T15:38:28.791Z,14.67
2023-04-11T15:40:58.640Z,19.67
2023-04-11T15:43:26.572Z,15.00
2023-04-11T15:45:55.469Z,18.33
2023-04-11T15:48:22.808Z,14.00
2023-04-11T15:50:51.021Z,12.33
2023-04-11T15:53:19.036Z,12.00
2023-04-11T15:55:47.730Z,10.67
2023-04-11T15:58:15.403Z,14.33
2023-04-11T16:00:44.813Z,14.67
2023-04-11T16:03:12.650Z,16.00
2023-04-11T16:05:43.125Z,13.33
2023-04-11T16:08:11.339Z,12.00
2023-04-11T16:10:38.497Z,15.33
2023-04-11T16:13:05.796Z,14.75
2023-04-11T16:15:32.964Z,18.75
2023-04-11T16:18:00.691Z,12.00
2023-04-11T16:20:28.217Z,14.67
2023-04-11T16:22:56.192Z,16.33
2023-04-11T16:25:23.250Z,11.33
2023-04-11T16:27:51.647Z,12.33
2023-04-11T16:30:19.245Z,16.00
2023-04-11T16:32:46.640Z,16.00
2023-04-11T16:35:14.086Z,13.67
2023-04-11T16:37:41.860Z,17.67
2023-04-11T16:40:12.568Z,16.75
2023-04-11T16:42:40.674Z,19.00
2023-04-11T16:45:10.065Z,14.75
2023-04-11T16:47:37.989Z,18.50
2023-04-11T16:50:06.117Z,14.00
2023-04-11T16:52:33.952Z,15.25
2023-04-11T16:55:01.260Z,14.00
2023-04-11T16:57:29.823Z,11.25
2023-04-11T16:59:57.609Z,13.50
2023-04-11T17:02:25.423Z,19.75
2023-04-11T17:04:55.137Z,14.75
2023-04-11T17:07:22.891Z,19.25
2023-04-11T17:09:50.007Z,21.25
2023-04-11T17:12:17.723Z,15.00
2023-04-11T17:14:45.862Z,18.00
2023-04-11T17:17:13.364Z,11.50
2023-04-11T17:19:40.852Z,13.50
2023-04-11T17:22:09.899Z,9.00
2023-04-11T17:24:37.032Z,11.75
2023-04-11T17:27:04.550Z,12.75
2023-04-11T17:29:32.452Z,9.25
2023-04-11T17:31:59.819Z,8.50
2023-04-11T17:34:26.798Z,6.00
2023-04-11T17:36:54.846Z,11.50
2023-04-11T17:39:22.088Z,11.50
2023-04-11T17:41:49.625Z,9.00
2023-04-11T17:44:18.016Z,8.00
2023-04-11T17:46:45.778Z,12.00
2023-04-11T17:49:13.456Z,5.25
2023-04-11T17:51:48.779Z,14.50
2023-04-11T17:55:13.162Z,16.75
2023-04-11T17:57:59.310Z,17.50
2023-04-11T18:00:27.026Z,17.75
2023-04-11T18:02:58.077Z,19.25
2023-04-11T18:05:31.647Z,20.75
2023-04-11T18:07:59.995Z,23.75
2023-04-11T18:10:28.316Z,22.25
2023-04-11T18:12:57.006Z,21.50
2023-04-11T18:15:25.888Z,18.00
2023-04-11T18:17:53.592Z,21.00
2023-04-11T18:20:24.256Z,24.00
2023-04-11T18:22:54.880Z,19.75
2023-04-11T18:25:22.843Z,22.00
2023-04-11T18:27:50.123Z,25.00
2023-04-11T18:30:17.648Z,22.25
2023-04-11T18:32:49.734Z,19.25
2023-04-11T18:35:18.822Z,24.50
2023-04-11T18:37:46.657Z,25.00
2023-04-11T18:40:15.519Z,23.50
2023-04-11T18:42:51.701Z,28.50
2023-04-11T18:45:23.334Z,30.25
2023-04-11T18:47:51.180Z,25.50
2023-04-11T18:50:19.386Z,21.25
2023-04-11T18:52:49.882Z,24.25
2023-04-11T18:55:21.235Z,22.50
2023-04-11T18:57:49.420Z,25.00
2023-04-11T19:00:19.586Z,20.75
2023-04-11T19:02:48.927Z,17.75
2023-04-11T19:05:18.683Z,18.25
2023-04-11T19:07:46.895Z,20.50
2023-04-11T19:10:17.740Z,23.00
2023-04-11T19:12:45.228Z,22.50
2023-04-11T19:15:12.998Z,24.75
2023-04-11T19:17:40.861Z,18.00
2023-04-11T19:20:13.272Z,17.50
2023-04-11T19:22:41.219Z,16.00
2023-04-11T19:25:11.429Z,12.00
2023-04-11T19:27:41.744Z,15.00
2023-04-11T19:30:11.475Z,13.00
2023-04-11T19:32:41.183Z,11.00
2023-04-11T19:35:12.845Z,12.25
2023-04-11T19:37:41.039Z,11.75
2023-04-11T19:40:13.818Z,3.00
2023-04-11T19:42:42.020Z,13.50
2023-04-11T19:45:11.372Z,3.75
2023-04-11T19:47:40.130Z,11.00
2023-04-11T19:50:12.113Z,9.75
2023-04-11T19:52:40.682Z,9.00
2023-04-11T19:55:09.524Z,4.00
2023-04-11T19:57:40.885Z,14.00
2023-04-11T20:00:17.805Z,12.00
2023-04-11T20:02:47.013Z,11.25
2023-04-11T20:05:16.431Z,15.25
2023-04-11T20:07:44.236Z,15.50
2023-04-11T20:10:13.042Z,16.25
2023-04-11T20:12:40.397Z,16.25
2023-04-11T20:15:39.096Z,17.50
2023-04-11T20:18:07.155Z,17.75
2023-04-11T20:20:36.886Z,18.75
2023-04-11T20:23:05.480Z,21.00
2023-04-11T20:25:34.049Z,17.75
2023-04-11T20:28:01.744Z,21.75
2023-04-11T20:30:34.668Z,23.25
2023-04-11T20:33:02.526Z,18.50
2023-04-11T20:35:30.597Z,23.00
2023-04-11T20:37:58.128Z,23.50
2023-04-11T20:40:25.547Z,27.75
2023-04-11T20:42:52.648Z,25.50
2023-04-11T20:45:25.932Z,22.25
2023-04-11T20:47:53.306Z,23.50
2023-04-11T20:50:21.781Z,23.00
2023-04-11T20:52:53.555Z,17.50
2023-04-11T20:55:22.256Z,22.00
2023-04-11T20:57:49.839Z,23.50
2023-04-11T21:01:09.183Z,17.75
2023-04-11T21:03:39.051Z,21.50
2023-04-11T21:06:08.271Z,20.25
2023-04-11T21:08:37.568Z,15.75
2023-04-11T21:11:05.770Z,19.00
2023-04-11T21:13:32.837Z,19.75
2023-04-11T21:16:00.568Z,21.75
2023-04-11T21:18:27.801Z,15.25
2023-04-11T21:21:02.300Z,16.25
2023-04-11T21:23:32.622Z,24.50
2023-04-11T21:26:08.261Z,20.25
2023-04-11T21:28:35.452Z,23.00
2023-04-11T21:31:02.873Z,17.25
2023-04-11T21:33:30.319Z,18.00
2023-04-11T21:35:57.736Z,17.00
2023-04-11T21:38:25.069Z,7.25
2023-04-11T21:40:52.772Z,17.00
2023-04-11T21:43:20.151Z,13.00
2023-04-11T21:45:47.475Z,17.00
2023-04-11T21:48:14.572Z,14.75
2023-04-11T21:50:42.095Z,16.00
2023-04-11T21:53:09.016Z,14.50
2023-04-11T21:55:36.438Z,21.50
2023-04-11T21:58:03.610Z,17.50
2023-04-11T22:00:31.161Z,21.25
2023-04-11T22:02:58.382Z,19.75
2023-04-11T22:05:26.599Z,14.00
2023-04-11T22:08:11.986Z,14.00
2023-04-11T22:10:47.706Z,12.00
2023-04-11T22:13:17.338Z,13.50
2023-04-11T22:15:45.695Z,13.25
2023-04-11T22:18:13.012Z,15.75
2023-04-11T22:20:44.315Z,14.50
2023-04-11T22:23:13.023Z,10.00
2023-04-11T22:25:44.325Z,12.50
2023-04-11T22:28:18.434Z,13.25
2023-04-11T22:30:49.215Z,15.50
2023-04-11T22:33:17.315Z,17.00
2023-04-11T22:35:45.286Z,11.75
2023-04-11T22:38:12.473Z,9.50
2023-04-11T22:40:40.597Z,11.00
2023-04-11T22:43:07.710Z,13.00
2023-04-11T22:45:36.084Z,15.00
2023-04-11T22:48:04.684Z,16.75
2023-04-11T22:50:32.575Z,14.75
2023-04-11T22:53:02.755Z,14.50
2023-04-11T22:55:34.418Z,13.50
2023-04-11T22:58:02.350Z,9.00
2023-04-11T23:00:30.105Z,14.50
2023-04-11T23:02:59.901Z,15.00
2023-04-11T23:05:27.588Z,12.75
2023-04-11T23:07:54.832Z,14.00
2023-04-11T23:10:22.224Z,14.25
2023-04-11T23:12:49.628Z,16.75
2023-04-11T23:15:17.662Z,12.75
2023-04-11T23:17:45.123Z,15.00
2023-04-11T23:20:13.822Z,15.50
2023-04-11T23:22:42.783Z,14.50
2023-04-11T23:25:16.019Z,14.75
2023-04-11T23:27:44.613Z,14.25
2023-04-11T23:30:12.736Z,8.00
2023-04-11T23:32:40.046Z,12.00
2023-04-11T23:35:08.303Z,12.00
2023-04-11T23:37:35.257Z,11.00
2023-04-11T23:40:11.127Z,12.00
2023-04-11T23:42:39.156Z,10.00
2023-04-11T23:45:07.850Z,7.00
2023-04-11T23:47:35.175Z,6.50
2023-04-11T23:50:03.821Z,8.00
2023-04-11T23:52:32.111Z,8.75
2023-04-11T23:54:59.611Z,6.00
2023-04-11T23:57:26.665Z,3.75
2023-04-11T23:59:53.864Z,7.50
